Portada
METAR-TAF:

METAR-TAF

Aeroports :

Atenes, Grècia

Aeroport Internacional Elefthérios Venizelos

latitud: 37-56N, longitud: 023-56E, altitud: 94 m

Observació

L'informe es va fer fa 12 minuts, a les 19:50 UTC
Vent 13 kt del Nord/Nord-Est
Temperatura 16°C
Humitat 51%
Pressió 1019 hPa
Visibilitat 10 km o més
Escasses núvols a una alçada de 3000 ft

METAR: LGAV 201950Z 03013KT 9999 FEW030 16/06 Q1019 NOSIG

Hora: 23:02 (20:02 UTC)

Pronòstic

L'informe es va fer fa 3 hores i 2 minuts, a les 17:00 UTC
Pronòstic vàlid del 20 a les 18 UTC al 21 a les 18 UTC
Vent 20 kt del Nord-Est amb ràfegues de 30 kt
Visibilitat 10 km o més
Escasses núvols a una alçada de 3500 ft
Temporalment
l' 21 a les 08 UTC al 21 a les 12 UTC
Núvols disperses a una alçada de 2000 ft
Núvols disperses a una alçada de 7000 ft

TAF: LGAV 201700Z 2018/2118 05020G30KT 9999 FEW035 TEMPO 2108/2112 SCT020 SCT070

Observacions i pronòstics meteorològics de més de 4000 aeroports (METAR i TAF).

Les estacions disponibles són els punts grocs i vermells al mapa.

Posi el ratolí al punt desitjat per veure el nom de l'estació.

Feu clic per veure les observacions i els pronòstics meteorològics.

Per canviar el mapa: feu clic els botons verds amb una creu de color negre per apropar; al botó verd amb un guió per allunyar la imatge; o en les fletxes verdes per a mapes adjacents.


METAR-TAF: